createdAt,value
2018-10-02T00:00:35.551Z,99981.26
2018-10-02T00:03:01.525Z,99984.26
2018-10-02T00:05:27.502Z,99981.69
2018-10-02T00:07:53.432Z,99985.17
2018-10-02T00:10:19.364Z,99986.61
2018-10-02T00:12:45.313Z,99986.45
2018-10-02T00:15:11.247Z,99986.92
2018-10-02T00:17:37.201Z,99977.02
2018-10-02T00:20:03.117Z,99979.22
2018-10-02T00:22:29.060Z,99979.48
2018-10-02T00:24:55.010Z,99987.89
2018-10-02T00:27:20.930Z,99985.09
2018-10-02T00:29:46.873Z,99990.18
2018-10-02T00:32:12.997Z,99995.30
2018-10-02T00:34:38.777Z,99984.64
2018-10-02T00:37:04.719Z,99983.26
2018-10-02T00:39:30.653Z,99992.78
2018-10-02T00:41:56.614Z,99994.31
2018-10-02T00:44:22.556Z,100001.56
2018-10-02T00:46:48.493Z,99999.08
2018-10-02T00:49:14.407Z,99997.91
2018-10-02T00:51:40.386Z,100001.06
2018-10-02T00:54:06.315Z,100007.38
2018-10-02T00:56:32.288Z,100007.64
2018-10-02T00:58:58.232Z,100005.09
2018-10-02T01:01:24.179Z,100016.11
2018-10-02T01:03:50.111Z,100011.05
2018-10-02T01:06:16.097Z,100009.21
2018-10-02T01:08:42.044Z,100010.22
2018-10-02T01:11:08.010Z,100011.26
2018-10-02T01:13:33.963Z,100018.30
2018-10-02T01:15:59.946Z,100012.71
2018-10-02T01:18:25.888Z,100010.09
2018-10-02T01:20:51.804Z,100014.91
2018-10-02T01:23:17.754Z,100007.94
2018-10-02T01:25:43.696Z,100014.44
2018-10-02T01:28:09.689Z,100005.47
2018-10-02T01:30:35.647Z,100001.17
2018-10-02T01:33:01.615Z,100002.63
2018-10-02T01:35:27.557Z,100005.12
2018-10-02T01:37:53.513Z,100004.67
2018-10-02T01:40:19.450Z,100003.32
2018-10-02T01:42:45.387Z,100007.97
2018-10-02T01:45:11.335Z,100012.20
2018-10-02T01:47:37.307Z,100006.29
2018-10-02T01:50:03.265Z,100004.97
2018-10-02T01:52:29.226Z,100010.09
2018-10-02T01:54:55.162Z,100005.39
2018-10-02T01:57:21.117Z,100004.45
2018-10-02T01:59:47.064Z,100006.21
2018-10-02T02:02:13.015Z,100003.32
2018-10-02T02:04:38.966Z,100011.41
2018-10-02T02:07:04.918Z,100014.09
2018-10-02T02:09:30.856Z,100007.53
2018-10-02T02:11:56.805Z,100007.97
2018-10-02T02:14:22.751Z,100012.34
2018-10-02T02:16:48.701Z,100013.22
2018-10-02T02:19:14.627Z,100004.78
2018-10-02T02:21:40.616Z,100001.89
2018-10-02T02:24:06.568Z,100010.33
2018-10-02T02:26:32.514Z,100009.66
2018-10-02T02:28:58.435Z,100013.48
2018-10-02T02:31:24.379Z,100015.08
2018-10-02T02:33:50.307Z,100014.15
2018-10-02T02:36:16.249Z,100014.09
2018-10-02T02:38:42.225Z,100021.39
2018-10-02T02:41:08.195Z,100010.78
2018-10-02T02:43:34.180Z,100015.82
2018-10-02T02:46:00.124Z,100025.29
2018-10-02T02:48:26.069Z,100021.89
2018-10-02T02:50:52.021Z,100023.77
2018-10-02T02:53:18.015Z,100019.83
2018-10-02T02:55:43.982Z,100026.25
2018-10-02T03:00:42.338Z,100032.36
2018-10-02T03:03:08.314Z,100036.59
2018-10-02T03:05:34.252Z,100034.86
2018-10-02T03:08:00.224Z,100040.80
2018-10-02T03:10:26.189Z,100045.23
2018-10-02T03:12:52.176Z,100043.55
2018-10-02T03:15:18.129Z,100040.59
2018-10-02T03:17:44.116Z,100042.20
2018-10-02T03:20:10.061Z,100041.27
2018-10-02T03:22:36.008Z,100046.81
2018-10-02T03:25:01.947Z,100050.37
2018-10-02T03:27:27.910Z,100045.23
2018-10-02T03:29:53.867Z,100041.81
2018-10-02T03:32:19.823Z,100038.14
2018-10-02T03:34:45.748Z,100042.69
2018-10-02T03:37:11.692Z,100040.14
2018-10-02T03:39:37.663Z,100046.61
2018-10-02T03:42:03.640Z,100051.24
2018-10-02T03:44:29.570Z,100043.16
2018-10-02T03:46:55.531Z,100048.92
2018-10-02T03:49:21.489Z,100053.02
2018-10-02T03:51:47.448Z,100042.84
2018-10-02T03:54:13.404Z,100049.75
2018-10-02T03:56:39.346Z,100043.03
2018-10-02T03:59:05.291Z,100044.73
2018-10-02T04:01:31.245Z,100045.99
2018-10-02T04:03:57.193Z,100044.69
2018-10-02T04:06:23.136Z,100041.33
2018-10-02T04:08:49.076Z,100041.71
2018-10-02T04:11:15.032Z,100035.30
2018-10-02T04:13:41.005Z,100036.08
2018-10-02T04:16:06.953Z,100041.71
2018-10-02T04:18:32.892Z,100033.67
2018-10-02T04:20:58.842Z,100031.62
2018-10-02T04:23:24.805Z,100031.24
2018-10-02T04:25:50.753Z,100031.19
2018-10-02T04:28:16.776Z,100032.45
2018-10-02T04:30:42.699Z,100033.34
2018-10-02T04:33:08.650Z,100037.53
2018-10-02T04:35:34.610Z,100037.99
2018-10-02T04:38:00.552Z,100039.31
2018-10-02T04:40:26.488Z,100033.75
2018-10-02T04:42:52.423Z,100036.23
2018-10-02T04:45:18.363Z,100033.25
2018-10-02T04:47:44.317Z,100036.20
2018-10-02T04:50:10.267Z,100041.69
2018-10-02T04:52:36.228Z,100040.04
2018-10-02T04:55:02.233Z,100037.08
2018-10-02T04:57:28.147Z,100034.13
2018-10-02T04:59:54.082Z,100039.70
2018-10-02T05:02:20.129Z,100037.61
2018-10-02T05:04:46.090Z,100044.91
2018-10-02T05:07:12.043Z,100041.51
2018-10-02T05:09:38.118Z,100049.10
2018-10-02T05:12:04.068Z,100051.75
2018-10-02T05:14:30.036Z,100044.93
2018-10-02T05:16:55.994Z,100050.84
2018-10-02T05:19:21.947Z,100053.48
2018-10-02T05:21:47.926Z,100052.52
2018-10-02T05:24:13.925Z,100054.17
2018-10-02T05:26:39.832Z,100063.48
2018-10-02T05:29:05.776Z,100059.98
2018-10-02T05:31:31.757Z,100061.67
2018-10-02T05:33:57.697Z,100063.75
2018-10-02T05:36:23.650Z,100064.16
2018-10-02T05:38:49.622Z,100059.94
2018-10-02T05:41:15.592Z,100068.83
2018-10-02T05:43:41.564Z,100073.92
2018-10-02T05:46:07.499Z,100072.64
2018-10-02T05:48:33.463Z,100080.74
2018-10-02T05:50:59.433Z,100078.18
2018-10-02T05:53:25.373Z,100081.06
2018-10-02T05:55:51.328Z,100086.49
2018-10-02T05:58:17.344Z,100095.36
2018-10-02T06:00:43.293Z,100093.32
2018-10-02T06:03:09.299Z,100094.11
2018-10-02T06:05:35.271Z,100103.88
2018-10-02T06:08:01.227Z,100099.22
2018-10-02T06:10:27.177Z,100105.08
2018-10-02T06:12:53.128Z,100103.06
2018-10-02T06:15:19.100Z,100102.25
2018-10-02T06:17:45.091Z,100109.78
2018-10-02T06:20:11.046Z,100116.52
2018-10-02T06:22:36.990Z,100114.82
2018-10-02T06:25:02.974Z,100120.88
2018-10-02T06:27:28.951Z,100119.27
2018-10-02T06:29:54.892Z,100120.84
2018-10-02T06:32:20.859Z,100120.88
2018-10-02T06:34:46.827Z,100124.94
2018-10-02T06:37:12.801Z,100121.09
2018-10-02T06:39:38.775Z,100132.64
2018-10-02T06:42:04.766Z,100131.03
2018-10-02T06:44:30.770Z,100131.05
2018-10-02T06:46:56.695Z,100134.78
2018-10-02T06:49:22.637Z,100142.74
2018-10-02T06:51:48.624Z,100145.69
2018-10-02T06:54:14.570Z,100140.98
2018-10-02T06:56:40.570Z,100144.67
2018-10-02T06:59:06.512Z,100146.13
2018-10-02T07:01:32.473Z,100150.64
2018-10-02T07:03:58.422Z,100142.08
2018-10-02T07:06:24.389Z,100150.12
2018-10-02T07:08:50.371Z,100149.30
2018-10-02T07:11:16.293Z,100155.73
2018-10-02T07:13:42.632Z,100151.28
2018-10-02T07:16:08.581Z,100148.23
2018-10-02T07:18:34.547Z,100154.14
2018-10-02T07:21:00.607Z,100152.75
2018-10-02T07:23:26.516Z,100145.25
2018-10-02T07:25:52.467Z,100148.05
2018-10-02T07:28:18.502Z,100148.20
2018-10-02T07:30:44.471Z,100146.52
2018-10-02T07:33:10.346Z,100148.81
2018-10-02T07:35:36.299Z,100150.57
2018-10-02T07:38:02.248Z,100151.77
2018-10-02T07:40:28.203Z,100159.95
2018-10-02T07:42:54.175Z,100157.78
2018-10-02T07:45:20.140Z,100155.46
2018-10-02T07:47:46.175Z,100157.80
2018-10-02T07:50:12.104Z,100151.63
2018-10-02T07:52:38.063Z,100153.48
2018-10-02T07:55:04.017Z,100163.70
2018-10-02T07:57:30.031Z,100163.70
2018-10-02T08:02:28.447Z,100149.19
2018-10-02T08:04:54.456Z,100149.31
2018-10-02T08:07:20.379Z,100151.03
2018-10-02T08:09:46.322Z,100149.94
2018-10-02T08:12:12.420Z,100148.98
2018-10-02T08:14:38.354Z,100136.94
2018-10-02T08:17:04.252Z,100125.29
2018-10-02T08:19:30.195Z,100128.27
2018-10-02T08:21:56.163Z,100126.99
2018-10-02T08:24:22.119Z,100123.70
2018-10-02T08:26:48.091Z,100126.25
2018-10-02T08:29:14.035Z,100118.86
2018-10-02T08:31:39.999Z,100114.86
2018-10-02T08:34:05.956Z,100117.92
2018-10-02T08:36:31.946Z,100115.41
2018-10-02T08:38:57.886Z,100111.97
2018-10-02T08:41:23.833Z,100115.22
2018-10-02T08:43:49.865Z,100112.89
2018-10-02T08:46:15.744Z,100101.81
2018-10-02T08:48:41.713Z,100109.67
2018-10-02T08:51:07.680Z,100102.65
2018-10-02T08:53:33.679Z,100099.59
2018-10-02T08:55:59.620Z,100105.91
2018-10-02T08:58:25.602Z,100108.28
2018-10-02T09:00:51.636Z,100109.95
2018-10-02T09:03:17.652Z,100106.93
2018-10-02T09:05:43.627Z,100108.89
2018-10-02T09:08:09.566Z,100103.19
2018-10-02T09:10:35.556Z,100096.70
2018-10-02T09:13:01.598Z,100087.48
2018-10-02T09:15:27.582Z,100096.84
2018-10-02T09:17:53.528Z,100087.50
2018-10-02T09:20:19.477Z,100087.92
2018-10-02T09:22:45.496Z,100089.30
2018-10-02T09:25:11.526Z,100084.94
2018-10-02T09:27:37.559Z,100083.87
2018-10-02T09:30:03.534Z,100083.23
2018-10-02T09:32:29.487Z,100074.35
2018-10-02T09:34:55.430Z,100063.65
2018-10-02T09:37:21.438Z,100069.38
2018-10-02T09:39:47.389Z,100069.59
2018-10-02T09:42:13.334Z,100077.72
2018-10-02T09:44:39.274Z,100074.55
2018-10-02T09:47:05.353Z,100061.63
2018-10-02T09:49:31.340Z,100072.75
2018-10-02T09:51:57.296Z,100062.73
2018-10-02T09:54:23.281Z,100074.16
2018-10-02T09:56:49.251Z,100062.56
2018-10-02T09:59:15.233Z,100064.36
2018-10-02T10:01:41.198Z,100054.31
2018-10-02T10:04:07.207Z,100049.33
2018-10-02T10:06:33.179Z,100055.33
2018-10-02T10:08:59.167Z,100057.83
2018-10-02T10:11:25.149Z,100043.09
2018-10-02T10:13:51.120Z,100048.69
2018-10-02T10:16:17.098Z,100046.16
2018-10-02T10:18:43.091Z,100043.78
2018-10-02T10:21:09.081Z,100049.03
2018-10-02T10:23:35.048Z,100047.33
2018-10-02T10:26:00.982Z,100036.42
2018-10-02T10:28:26.957Z,100048.03
2018-10-02T10:30:52.968Z,100037.33
2018-10-02T10:33:19.009Z,100029.59
2018-10-02T10:35:45.028Z,100032.53
2018-10-02T10:38:10.982Z,100031.16
2018-10-02T10:40:36.985Z,100021.02
2018-10-02T10:43:02.901Z,100018.97
2018-10-02T10:45:28.844Z,100023.27
2018-10-02T10:47:54.825Z,100020.94
2018-10-02T10:50:20.817Z,100029.41
2018-10-02T10:52:46.826Z,100015.12
2018-10-02T10:55:12.774Z,100017.98
2018-10-02T10:57:38.804Z,100012.70
2018-10-02T11:00:04.788Z,100014.23
2018-10-02T11:02:30.735Z,100011.55
2018-10-02T11:04:56.789Z,100003.62
2018-10-02T11:07:22.715Z,100005.92
2018-10-02T11:09:48.813Z,99994.80
2018-10-02T11:12:14.790Z,99995.66
2018-10-02T11:14:40.736Z,100004.00
2018-10-02T11:17:07.201Z,99988.27
2018-10-02T11:19:33.171Z,99993.63
2018-10-02T11:21:59.143Z,99990.93
2018-10-02T11:24:25.132Z,99994.70
2018-10-02T11:26:51.092Z,99988.19
2018-10-02T11:29:17.052Z,99987.30
2018-10-02T11:31:43.019Z,99985.29
2018-10-02T11:34:08.980Z,99981.20
2018-10-02T11:36:34.940Z,99976.02
2018-10-02T11:39:00.883Z,99961.69
2018-10-02T11:41:26.853Z,99963.39
2018-10-02T11:43:52.903Z,99958.95
2018-10-02T11:46:18.816Z,99954.31
2018-10-02T11:48:44.786Z,99954.52
2018-10-02T11:51:10.784Z,99953.73
2018-10-02T11:53:36.751Z,99952.66
2018-10-02T11:56:02.767Z,99944.61
2018-10-02T11:58:28.753Z,99948.44
2018-10-02T12:00:54.749Z,99941.05
2018-10-02T12:03:20.727Z,99947.66
2018-10-02T12:05:46.737Z,99935.39
2018-10-02T12:08:12.695Z,99934.70
2018-10-02T12:10:38.697Z,99924.88
2018-10-02T12:13:04.734Z,99931.08
2018-10-02T12:15:30.713Z,99930.66
2018-10-02T12:17:56.665Z,99939.35
2018-10-02T12:20:22.621Z,99936.92
2018-10-02T12:22:48.585Z,99937.36
2018-10-02T12:25:14.535Z,99938.80
2018-10-02T12:27:40.506Z,99935.95
2018-10-02T12:30:06.529Z,99935.81
2018-10-02T12:32:32.483Z,99950.05
2018-10-02T12:34:58.410Z,99940.47
2018-10-02T12:37:24.383Z,99937.83
2018-10-02T12:39:50.351Z,99936.24
2018-10-02T12:42:16.315Z,99933.69
2018-10-02T12:44:42.267Z,99937.99
2018-10-02T12:47:08.332Z,99925.63
2018-10-02T12:49:34.226Z,99921.64
2018-10-02T12:52:00.165Z,99927.77
2018-10-02T12:54:26.147Z,99914.41
2018-10-02T12:56:52.115Z,99928.88
2018-10-02T12:59:18.131Z,99929.05
2018-10-02T13:01:44.060Z,99907.83
2018-10-02T13:04:09.998Z,99911.41
2018-10-02T13:06:35.972Z,99902.94
2018-10-02T13:09:01.934Z,99897.66
2018-10-02T13:11:27.918Z,99888.53
2018-10-02T13:13:53.872Z,99894.58
2018-10-02T13:16:19.848Z,99884.05
2018-10-02T13:18:45.813Z,99871.41
2018-10-02T13:21:11.782Z,99870.82
2018-10-02T13:23:37.753Z,99867.22
2018-10-02T13:26:03.729Z,99867.46
2018-10-02T13:28:29.697Z,99845.69
2018-10-02T13:30:55.677Z,99838.63
2018-10-02T13:33:21.656Z,99839.82
2018-10-02T13:35:47.615Z,99826.96
2018-10-02T13:38:13.574Z,99823.42
2018-10-02T13:40:39.561Z,99824.01
2018-10-02T13:43:05.505Z,99824.27
2018-10-02T13:45:31.465Z,99805.45
2018-10-02T13:47:57.434Z,99807.39
2018-10-02T13:50:23.445Z,99788.86
2018-10-02T13:52:49.411Z,99784.12
2018-10-02T13:55:15.393Z,99795.78
2018-10-02T13:57:41.373Z,99793.23
2018-10-02T14:00:07.342Z,99792.01
2018-10-02T14:02:33.340Z,99792.42
2018-10-02T14:04:59.299Z,99779.73
2018-10-02T14:07:25.280Z,99782.25
2018-10-02T14:09:51.220Z,99775.14
2018-10-02T14:12:17.197Z,99769.73
2018-10-02T14:14:43.141Z,99768.38
2018-10-02T14:17:09.105Z,99760.58
2018-10-02T14:19:35.068Z,99777.48
2018-10-02T14:22:01.026Z,99762.89
2018-10-02T14:24:27.734Z,99762.21
2018-10-02T14:26:53.729Z,99752.37
2018-10-02T14:29:19.742Z,99742.47
2018-10-02T14:31:45.664Z,99751.61
2018-10-02T14:34:11.600Z,99751.01
2018-10-02T14:36:37.574Z,99748.93
2018-10-02T14:39:03.544Z,99749.87
2018-10-02T14:41:29.527Z,99749.56
2018-10-02T14:43:55.485Z,99755.48
2018-10-02T14:46:21.432Z,99756.03
2018-10-02T14:48:47.399Z,99742.03
2018-10-02T14:51:13.340Z,99751.36
2018-10-02T14:53:39.289Z,99752.38
2018-10-02T14:56:05.252Z,99743.39
2018-10-02T14:58:31.241Z,99745.42
2018-10-02T15:00:57.192Z,99731.83
2018-10-02T15:03:23.156Z,99731.91
2018-10-02T15:05:49.124Z,99725.87
2018-10-02T15:08:15.112Z,99708.88
2018-10-02T15:10:41.062Z,99725.39
2018-10-02T15:13:07.009Z,99720.25
2018-10-02T15:15:32.948Z,99712.08
2018-10-02T15:17:58.989Z,99704.69
2018-10-02T15:20:24.879Z,99696.39
2018-10-02T15:22:50.851Z,99700.94
2018-10-02T15:25:16.818Z,99703.75
2018-10-02T15:27:42.797Z,99709.92
2018-10-02T15:30:08.733Z,99700.80
2018-10-02T15:32:34.704Z,99691.55
2018-10-02T15:35:00.664Z,99693.15
2018-10-02T15:37:26.702Z,99688.94
2018-10-02T15:39:52.601Z,99677.80
2018-10-02T15:42:18.573Z,99671.53
2018-10-02T15:44:44.546Z,99674.75
2018-10-02T15:47:10.473Z,99666.55
2018-10-02T15:49:36.414Z,99664.61
2018-10-02T15:52:02.380Z,99671.33
2018-10-02T15:54:28.345Z,99666.78
2018-10-02T15:56:54.347Z,99647.13
2018-10-02T15:59:20.333Z,99666.99
2018-10-02T16:01:46.296Z,99651.47
2018-10-02T16:04:12.254Z,99642.69
2018-10-02T16:06:38.181Z,99646.48
2018-10-02T16:09:04.162Z,99636.17
2018-10-02T16:11:30.178Z,99631.98
2018-10-02T16:13:56.088Z,99625.36
2018-10-02T16:16:22.045Z,99623.11
2018-10-02T16:18:47.993Z,99621.33
2018-10-02T16:21:13.955Z,99617.45
2018-10-02T16:23:39.959Z,99628.30
2018-10-02T16:26:05.896Z,99619.33
2018-10-02T16:28:31.873Z,99614.44
2018-10-02T16:30:57.820Z,99611.92
2018-10-02T16:33:23.809Z,99610.52
2018-10-02T16:35:49.763Z,99607.53
2018-10-02T16:38:15.716Z,99600.32
2018-10-02T16:40:41.708Z,99613.58
2018-10-02T16:43:07.689Z,99596.18
2018-10-02T16:45:33.644Z,99586.49
2018-10-02T16:47:59.631Z,99598.91
2018-10-02T16:50:25.626Z,99601.04
2018-10-02T16:52:51.591Z,99601.80
2018-10-02T16:55:17.580Z,99609.70
2018-10-02T16:57:43.607Z,99603.80
2018-10-02T17:00:09.553Z,99590.92
2018-10-02T17:02:35.516Z,99606.71
2018-10-02T17:05:01.497Z,99590.35
2018-10-02T17:07:27.450Z,99604.13
2018-10-02T17:09:53.378Z,99596.48
2018-10-02T17:12:19.384Z,99597.59
2018-10-02T17:14:45.416Z,99587.56
2018-10-02T17:17:11.402Z,99596.19
2018-10-02T17:19:37.427Z,99600.73
2018-10-02T17:22:03.428Z,99599.59
2018-10-02T17:24:29.419Z,99597.00
2018-10-02T17:26:55.429Z,99593.88
2018-10-02T17:29:21.427Z,99599.36
2018-10-02T17:31:47.405Z,99605.73
2018-10-02T17:34:13.421Z,99600.14
2018-10-02T17:36:39.392Z,99588.35
2018-10-02T17:39:05.353Z,99606.16
2018-10-02T17:41:31.340Z,99616.67
2018-10-02T17:43:57.307Z,99616.56
2018-10-02T17:46:23.330Z,99624.16
2018-10-02T17:48:49.423Z,99619.77
2018-10-02T17:51:15.400Z,99619.70
2018-10-02T17:53:41.397Z,99616.31
2018-10-02T17:56:07.565Z,99609.58
2018-10-02T17:58:33.579Z,99613.08
2018-10-02T18:00:59.545Z,99612.94
2018-10-02T18:03:25.621Z,99619.37
2018-10-02T18:05:51.692Z,99616.19
2018-10-02T18:08:17.670Z,99616.88
2018-10-02T18:10:43.647Z,99614.84
2018-10-02T18:13:09.600Z,99621.86
2018-10-02T18:15:35.633Z,99614.52
2018-10-02T18:18:01.583Z,99609.31
2018-10-02T18:20:27.579Z,99608.62
2018-10-02T18:22:53.551Z,99603.28
2018-10-02T18:25:19.546Z,99609.31
2018-10-02T18:27:45.512Z,99615.69
2018-10-02T18:30:11.512Z,99618.58
2018-10-02T18:32:37.507Z,99617.05
2018-10-02T18:35:03.496Z,99609.71
2018-10-02T18:37:29.486Z,99601.73
2018-10-02T18:39:55.546Z,99597.84
2018-10-02T18:42:21.509Z,99615.61
2018-10-02T18:44:47.493Z,99608.50
2018-10-02T18:47:13.495Z,99606.64
2018-10-02T18:49:39.477Z,99617.05
2018-10-02T18:52:05.493Z,99624.37
2018-10-02T18:54:31.477Z,99616.22
2018-10-02T18:56:57.446Z,99608.84
2018-10-02T18:59:23.390Z,99615.21
2018-10-02T19:01:49.369Z,99611.18
2018-10-02T19:04:15.350Z,99615.55
2018-10-02T19:06:41.388Z,99608.60
2018-10-02T19:09:07.426Z,99612.84
2018-10-02T19:11:33.437Z,99626.98
2018-10-02T19:13:59.442Z,99620.84
2018-10-02T19:16:25.438Z,99620.16
2018-10-02T19:18:51.437Z,99627.95
2018-10-02T19:21:17.481Z,99621.41
2018-10-02T19:23:43.467Z,99629.64
2018-10-02T19:26:09.476Z,99621.68
2018-10-02T19:28:35.442Z,99623.43
2018-10-02T19:31:01.462Z,99620.14
2018-10-02T19:33:27.465Z,99620.16
2018-10-02T19:35:53.500Z,99620.64
2018-10-02T19:38:19.497Z,99617.09
2018-10-02T19:40:45.589Z,99629.29
2018-10-02T19:43:11.622Z,99617.55
2018-10-02T19:45:37.644Z,99621.30
2018-10-02T19:48:03.643Z,99618.34
2018-10-02T19:50:29.627Z,99620.55
2018-10-02T19:52:55.589Z,99609.54
2018-10-02T19:55:21.591Z,99625.91
2018-10-02T19:57:47.564Z,99622.00
2018-10-02T20:00:13.510Z,99620.22
2018-10-02T20:02:39.484Z,99619.91
2018-10-02T20:05:05.482Z,99631.23
2018-10-02T20:07:31.589Z,99632.92
2018-10-02T20:09:57.445Z,99622.13
2018-10-02T20:12:23.457Z,99621.82
2018-10-02T20:14:49.478Z,99632.45
2018-10-02T20:17:15.450Z,99615.55
2018-10-02T20:19:41.435Z,99632.00
2018-10-02T20:22:07.426Z,99624.23
2018-10-02T20:24:33.377Z,99613.06
2018-10-02T20:26:59.376Z,99630.08
2018-10-02T20:29:25.371Z,99608.61
2018-10-02T20:31:51.338Z,99618.64
2018-10-02T20:34:17.343Z,99613.61
2018-10-02T20:36:43.399Z,99633.95
2018-10-02T20:39:09.403Z,99628.84
2018-10-02T20:41:35.394Z,99617.66
2018-10-02T20:44:01.394Z,99616.77
2018-10-02T20:46:27.395Z,99604.36
2018-10-02T20:48:53.377Z,99621.48
2018-10-02T20:51:19.330Z,99625.52
2018-10-02T20:53:45.349Z,99632.28
2018-10-02T20:56:11.341Z,99605.84
2018-10-02T20:58:37.321Z,99622.84
2018-10-02T21:01:03.300Z,99627.28
2018-10-02T21:03:29.261Z,99615.88
2018-10-02T21:05:55.252Z,99615.23
2018-10-02T21:08:21.209Z,99603.95
2018-10-02T21:10:47.207Z,99612.37
2018-10-02T21:13:13.213Z,99618.97
2018-10-02T21:15:39.328Z,99625.03
2018-10-02T21:18:05.200Z,99622.16
2018-10-02T21:20:31.177Z,99635.52
2018-10-02T21:22:57.141Z,99635.64
2018-10-02T21:25:23.097Z,99642.11
2018-10-02T21:27:49.089Z,99647.00
2018-10-02T21:30:15.090Z,99654.15
2018-10-02T21:32:41.070Z,99636.29
2018-10-02T21:35:07.060Z,99650.87
2018-10-02T21:37:33.008Z,99636.20
2018-10-02T21:39:59.031Z,99636.11
2018-10-02T21:42:24.939Z,99623.43
2018-10-02T21:44:50.948Z,99630.86
2018-10-02T21:47:16.969Z,99627.91
2018-10-02T21:49:42.920Z,99624.34
2018-10-02T21:52:08.920Z,99621.53
2018-10-02T21:54:34.896Z,99633.03
2018-10-02T21:57:00.874Z,99635.63
2018-10-02T21:59:26.861Z,99629.11
2018-10-02T22:01:52.868Z,99626.67
2018-10-02T22:04:18.824Z,99635.25
2018-10-02T22:06:44.848Z,99627.48
2018-10-02T22:09:10.790Z,99633.73
2018-10-02T22:11:36.747Z,99641.98
2018-10-02T22:14:02.713Z,99634.83
2018-10-02T22:16:28.673Z,99620.75
2018-10-02T22:18:54.630Z,99625.91
2018-10-02T22:21:20.592Z,99622.28
2018-10-02T22:23:46.567Z,99616.86
2018-10-02T22:26:12.555Z,99608.14
2018-10-02T22:28:38.530Z,99614.00
2018-10-02T22:31:04.481Z,99605.53
2018-10-02T22:33:30.441Z,99605.30
2018-10-02T22:35:56.401Z,99608.00
2018-10-02T22:38:22.340Z,99607.84
2018-10-02T22:40:48.304Z,99608.80
2018-10-02T22:43:14.261Z,99609.52
2018-10-02T22:45:40.205Z,99602.73
2018-10-02T22:48:06.142Z,99611.31
2018-10-02T22:50:32.156Z,99618.77
2018-10-02T22:52:58.116Z,99615.83
2018-10-02T22:55:24.065Z,99627.66
2018-10-02T22:57:50.024Z,99617.36
2018-10-02T23:00:15.993Z,99636.44
2018-10-02T23:02:41.947Z,99627.39
2018-10-02T23:05:07.896Z,99621.94
2018-10-02T23:07:33.842Z,99612.25
2018-10-02T23:09:59.774Z,99611.20
2018-10-02T23:12:25.725Z,99605.61
2018-10-02T23:14:51.675Z,99605.08
2018-10-02T23:17:17.621Z,99596.72
2018-10-02T23:19:43.552Z,99606.95
2018-10-02T23:22:09.496Z,99604.56
2018-10-02T23:24:35.458Z,99599.27
2018-10-02T23:27:01.413Z,99611.80
2018-10-02T23:29:27.396Z,99609.49
2018-10-02T23:31:53.352Z,99615.31
2018-10-02T23:34:19.296Z,99606.95
2018-10-02T23:36:45.240Z,99628.73
2018-10-02T23:39:11.201Z,99616.91
2018-10-02T23:41:37.155Z,99620.46
2018-10-02T23:44:03.115Z,99610.44
2018-10-02T23:46:29.064Z,99612.86
2018-10-02T23:48:55.046Z,99615.92
2018-10-02T23:51:21.024Z,99614.73
2018-10-02T23:53:46.993Z,99622.91
2018-10-02T23:56:12.987Z,99616.55
2018-10-02T23:58:38.980Z,99606.61
